Time;durP1;ratioP1;P1;durP2;ratioP2;P2;SDS_P1;SDS_P2;PMS_P1;PMS_P2;Temp;Humidity;BMP_temperature;BMP_pressure;BME280_temperature;BME280_humidity;BME280_pressure;Samples;Min_cycle;Max_cycle;Signal;HPM_P1;HPM_P2
2021/04/05 00:01:16;;;;;;;23.75;14.05;;;4.80;94.30;;;;;;5070232;28;20036;-77
2021/04/05 00:03:41;;;;;;;31.52;14.88;;;4.80;94.30;;;;;;5076204;28;20408;-77
2021/04/05 00:06:07;;;;;;;32.35;13.90;;;4.70;94.30;;;;;;5070422;28;20041;-77
2021/04/05 00:08:33;;;;;;;26.13;13.55;;;4.80;94.60;;;;;;5082113;28;20055;-77
2021/04/05 00:10:59;;;;;;;25.20;14.07;;;4.90;94.70;;;;;;5070006;28;20043;-77
2021/04/05 00:13:28;;;;;;;32.30;15.00;;;4.80;94.70;;;;;;5075221;28;20400;-77
2021/04/05 00:15:55;;;;;;;25.88;14.15;;;4.90;95.00;;;;;;5069604;28;20041;-77
2021/04/05 00:18:23;;;;;;;27.45;14.65;;;5.00;94.60;;;;;;5073189;28;20044;-77
2021/04/05 00:20:57;;;;;;;30.77;15.00;;;5.00;94.60;;;;;;5064327;28;20422;-77
2021/04/05 00:23:23;;;;;;;27.65;14.50;;;5.10;94.70;;;;;;5073343;28;20075;-77
2021/04/05 00:25:49;;;;;;;33.13;16.35;;;5.10;94.60;;;;;;5072653;28;20078;-77
2021/04/05 00:28:15;;;;;;;30.20;15.15;;;5.20;94.60;;;;;;5073948;28;20416;-77
2021/04/05 00:30:42;;;;;;;29.67;15.43;;;5.20;94.60;;;;;;5069038;28;20040;-77
2021/04/05 00:33:09;;;;;;;28.65;14.13;;;5.20;94.60;;;;;;5072398;28;20040;-77
2021/04/05 00:35:36;;;;;;;34.10;15.68;;;5.30;94.80;;;;;;5069769;28;20401;-77
2021/04/05 00:38:05;;;;;;;34.08;16.10;;;5.30;94.80;;;;;;5073847;28;20048;-77
2021/04/05 00:40:38;;;;;;;32.13;16.05;;;5.30;94.70;;;;;;5070639;28;20060;-77
2021/04/05 00:43:09;;;;;;;28.88;15.63;;;5.40;94.80;;;;;;5070860;28;20075;-77
2021/04/05 00:45:35;;;;;;;30.48;15.77;;;5.50;95.00;;;;;;5067898;28;20044;-77
2021/04/05 00:48:04;;;;;;;40.00;17.00;;;5.50;94.90;;;;;;5075947;28;20729;-77
2021/04/05 00:50:33;;;;;;;34.60;17.05;;;5.60;94.90;;;;;;5080592;28;20036;-77
2021/04/05 00:53:01;;;;;;;31.20;16.17;;;5.60;94.90;;;;;;5067366;28;20123;-77
2021/04/05 00:55:27;;;;;;;39.70;17.00;;;5.60;95.20;;;;;;5081470;28;20495;-77
2021/04/05 00:57:55;;;;;;;33.92;16.42;;;5.70;94.90;;;;;;5066600;28;20480;-77
2021/04/05 01:00:42;;;;;;;37.95;17.58;;;5.60;95.00;;;;;;5071802;28;20456;-77
2021/04/05 01:03:13;;;;;;;34.83;17.60;;;5.70;95.20;;;;;;5068439;28;20487;-77
2021/04/05 01:05:39;;;;;;;35.35;17.20;;;5.70;95.30;;;;;;5083417;28;20113;-77
2021/04/05 01:08:07;;;;;;;36.95;18.02;;;5.70;95.40;;;;;;5074764;28;20531;-77
2021/04/05 01:10:33;;;;;;;37.75;19.83;;;5.80;95.30;;;;;;5077195;28;20142;-77
2021/04/05 01:12:59;;;;;;;41.17;18.48;;;5.90;95.60;;;;;;5071761;28;20064;-77
2021/04/05 01:15:25;;;;;;;36.85;18.52;;;6.00;95.70;;;;;;5076636;28;20123;-77
2021/04/05 01:17:52;;;;;;;40.63;18.05;;;6.10;95.60;;;;;;5072843;28;20064;-77
2021/04/05 01:20:19;;;;;;;35.67;17.58;;;6.10;95.60;;;;;;5078183;28;20036;-77
2021/04/05 01:22:47;;;;;;;37.92;17.73;;;6.30;95.60;;;;;;5078494;28;20457;-77
2021/04/05 01:25:15;;;;;;;45.33;19.30;;;6.30;95.50;;;;;;5079600;28;20044;-77
2021/04/05 01:27:42;;;;;;;33.70;16.33;;;6.40;95.50;;;;;;5073286;28;20097;-77
2021/04/05 01:30:27;;;;;;;36.10;17.73;;;6.50;95.50;;;;;;5075191;28;20108;-77
2021/04/05 01:33:19;;;;;;;;;;;6.50;95.50;;;;;;5071602;28;20041;-77
2021/04/05 01:35:49;;;;;;;42.40;18.73;;;6.50;96.00;;;;;;5071876;28;19920;-77
2021/04/05 01:38:18;;;;;;;37.95;17.20;;;6.60;95.60;;;;;;5067649;28;20507;-77
2021/04/05 01:41:00;;;;;;;45.90;18.42;;;6.60;95.50;;;;;;5078711;28;20509;-77
2021/04/05 01:43:26;;;;;;;36.30;16.63;;;6.70;95.50;;;;;;5076563;28;20049;-77
2021/04/05 01:45:57;;;;;;;34.83;17.55;;;6.80;95.50;;;;;;5074690;28;20059;-77
2021/04/05 01:48:25;;;;;;;39.38;15.60;;;6.80;95.40;;;;;;5076298;28;20488;-77
2021/04/05 01:50:59;;;;;;;41.53;15.88;;;6.90;95.30;;;;;;5081414;28;20054;-77
2021/04/05 01:53:25;;;;;;;31.50;13.25;;;7.00;95.40;;;;;;5071168;28;28694;-77
2021/04/05 01:55:51;;;;;;;37.55;14.77;;;7.00;95.20;;;;;;5082492;28;20056;-78
2021/04/05 01:58:19;;;;;;;29.25;13.98;;;7.10;95.00;;;;;;5072518;28;20037;-77
2021/04/05 02:00:47;;;;;;;29.45;12.13;;;7.10;94.60;;;;;;5086051;28;20040;-77
2021/04/05 02:03:13;;;;;;;27.50;11.85;;;7.10;94.30;;;;;;5080958;28;20122;-78
2021/04/05 02:05:47;;;;;;;31.40;13.27;;;7.20;93.90;;;;;;5075041;28;20054;-77
2021/04/05 02:08:15;;;;;;;26.88;13.35;;;7.20;93.70;;;;;;5082847;28;20068;-77
2021/04/05 02:10:40;;;;;;;28.10;12.70;;;7.30;93.60;;;;;;5074264;28;20037;-77
2021/04/05 02:13:07;;;;;;;29.45;12.40;;;7.30;93.80;;;;;;5075731;28;20032;-77
2021/04/05 02:15:34;;;;;;;23.13;11.23;;;7.30;93.40;;;;;;5070305;28;20032;-78
2021/04/05 02:17:59;;;;;;;25.83;12.10;;;7.30;93.30;;;;;;5075294;28;20044;-77
2021/04/05 02:20:26;;;;;;;21.83;10.45;;;7.30;93.10;;;;;;5071828;28;20036;-77
2021/04/05 02:22:53;;;;;;;22.63;11.93;;;7.40;93.00;;;;;;5070682;28;20055;-77
2021/04/05 02:25:21;;;;;;;32.03;12.07;;;7.40;92.90;;;;;;5069034;28;20357;-77
2021/04/05 02:27:48;;;;;;;26.15;11.60;;;7.40;92.90;;;;;;5082228;28;20094;-77
2021/04/05 02:30:24;;;;;;;31.05;11.90;;;7.40;92.90;;;;;;5076025;28;20028;-77
2021/04/05 02:33:00;;;;;;;31.17;12.88;;;7.40;92.90;;;;;;5076521;28;20045;-77
2021/04/05 02:35:31;;;;;;;30.75;11.60;;;7.40;92.90;;;;;;5073445;28;20139;-77
2021/04/05 02:37:59;;;;;;;30.60;12.48;;;7.40;92.80;;;;;;5079698;28;20055;-77
2021/04/05 02:40:25;;;;;;;25.98;11.70;;;7.40;92.80;;;;;;5069846;28;20040;-77
2021/04/05 02:42:53;;;;;;;24.50;10.70;;;7.40;92.70;;;;;;5057904;28;20051;-77
2021/04/05 02:45:21;;;;;;;33.90;12.13;;;7.40;92.70;;;;;;5070268;28;20125;-77
2021/04/05 02:47:58;;;;;;;31.15;11.88;;;7.40;92.70;;;;;;5059542;28;20375;-77
2021/04/05 02:50:28;;;;;;;22.00;10.73;;;7.40;92.70;;;;;;5079729;28;20049;-77
2021/04/05 02:52:58;;;;;;;31.45;11.25;;;7.40;92.60;;;;;;5081099;28;20044;-77
2021/04/05 02:55:24;;;;;;;23.05;9.40;;;7.40;92.60;;;;;;5073031;28;20058;-77
2021/04/05 02:57:51;;;;;;;27.67;10.13;;;7.40;92.60;;;;;;5074992;28;20036;-77
2021/04/05 03:00:19;;;;;;;27.08;9.95;;;7.40;92.50;;;;;;5076399;28;20537;-77
2021/04/05 03:02:52;;;;;;;25.38;9.65;;;7.40;92.50;;;;;;5069439;28;20040;-77
2021/04/05 03:05:21;;;;;;;28.70;10.23;;;7.50;92.40;;;;;;5075651;28;20085;-77
2021/04/05 03:07:49;;;;;;;24.98;9.20;;;7.40;92.40;;;;;;5074392;28;20039;-77
2021/04/05 03:10:17;;;;;;;24.75;9.68;;;7.40;92.30;;;;;;5070329;28;20408;-77
2021/04/05 03:12:44;;;;;;;24.50;9.77;;;7.50;92.30;;;;;;5071089;28;20412;-77
2021/04/05 03:15:12;;;;;;;22.80;8.82;;;7.50;92.30;;;;;;5084250;28;20047;-77
2021/04/05 03:17:40;;;;;;;26.38;9.32;;;7.40;92.40;;;;;;5075626;28;20495;-77
2021/04/05 03:20:14;;;;;;;25.45;10.02;;;7.50;92.50;;;;;;5071308;28;20040;-77
2021/04/05 03:22:43;;;;;;;22.23;8.98;;;7.50;92.60;;;;;;5090517;28;20047;-77
2021/04/05 03:25:16;;;;;;;29.05;10.15;;;7.50;92.90;;;;;;5080720;28;20063;-77
2021/04/05 03:27:43;;;;;;;26.55;9.35;;;7.50;92.90;;;;;;5067997;28;20037;-77
2021/04/05 03:30:12;;;;;;;23.05;9.00;;;7.50;93.00;;;;;;5073398;28;20450;-77
2021/04/05 03:32:42;;;;;;;23.60;9.10;;;7.50;93.10;;;;;;5072530;28;20044;-77
2021/04/05 03:35:13;;;;;;;23.05;10.60;;;7.50;93.30;;;;;;5076610;28;20127;-77
2021/04/05 03:37:43;;;;;;;25.63;9.35;;;7.40;93.60;;;;;;5071493;28;20503;-77
2021/04/05 03:40:09;;;;;;;19.73;8.60;;;7.40;93.90;;;;;;5070732;28;20094;-77
2021/04/05 03:42:42;;;;;;;19.05;8.55;;;7.30;94.20;;;;;;5075379;28;20460;-77
2021/04/05 03:45:27;;;;;;;23.13;8.98;;;7.30;94.20;;;;;;5077587;28;20051;-77
2021/04/05 03:48:21;;;;;;;25.70;8.80;;;7.30;94.40;;;;;;5078336;28;20440;-77
2021/04/05 03:51:15;;;;;;;23.40;8.55;;;7.30;94.30;;;;;;5072386;28;20039;-77
2021/04/05 03:53:55;;;;;;;23.48;9.27;;;7.30;94.50;;;;;;5052103;28;20447;-77
2021/04/05 03:56:25;;;;;;;23.10;10.02;;;7.20;94.60;;;;;;5073934;28;20036;-77
2021/04/05 03:58:53;;;;;;;26.85;8.75;;;7.20;94.30;;;;;;5064334;28;20422;-77
2021/04/05 04:01:24;;;;;;;30.35;8.10;;;7.30;94.20;;;;;;5075775;28;20094;-77
2021/04/05 04:04:07;;;;;;;26.40;8.77;;;7.30;94.10;;;;;;5067933;28;20040;-77
2021/04/05 04:06:50;;;;;;;23.13;8.30;;;7.30;94.00;;;;;;5073814;28;20087;-77
2021/04/05 04:09:19;;;;;;;13.98;4.57;;;7.30;94.10;;;;;;5075282;28;20309;-77
2021/04/05 04:11:48;;;;;;;13.45;3.67;;;7.20;93.50;;;;;;5071443;28;20136;-77
2021/04/05 04:14:16;;;;;;;13.25;3.33;;;7.10;93.40;;;;;;5076074;28;20051;-77
2021/04/05 04:16:44;;;;;;;9.63;2.78;;;6.90;93.40;;;;;;5071259;28;23489;-77
2021/04/05 04:19:10;;;;;;;11.30;3.13;;;6.70;93.30;;;;;;5068642;28;20468;-77
2021/04/05 04:21:40;;;;;;;16.20;3.28;;;6.60;93.50;;;;;;5071282;28;20044;-77
2021/04/05 04:24:07;;;;;;;14.80;2.47;;;6.50;93.80;;;;;;5068129;28;20094;-77
2021/04/05 04:26:34;;;;;;;14.98;2.70;;;6.40;94.20;;;;;;5076134;28;20090;-77
2021/04/05 04:29:00;;;;;;;8.43;2.10;;;6.30;93.90;;;;;;5069144;28;20031;-77
2021/04/05 04:31:26;;;;;;;9.15;1.55;;;6.20;93.90;;;;;;5069835;28;20044;-77
2021/04/05 04:33:52;;;;;;;5.53;1.20;;;6.10;93.90;;;;;;5070426;28;20495;-77
2021/04/05 04:36:23;;;;;;;7.00;1.15;;;5.90;93.40;;;;;;5066543;28;20124;-77
2021/04/05 04:38:52;;;;;;;5.80;0.85;;;5.70;93.70;;;;;;5073454;28;20135;-77
2021/04/05 04:41:28;;;;;;;2.70;0.50;;;5.50;93.90;;;;;;5066380;28;20046;-77
2021/04/05 04:43:59;;;;;;;4.80;0.63;;;5.40;94.40;;;;;;5078340;28;20044;-77
2021/04/05 04:46:25;;;;;;;4.10;0.52;;;5.20;94.70;;;;;;5069420;28;20040;-77
2021/04/05 04:49:04;;;;;;;5.45;0.70;;;5.00;95.00;;;;;;5071591;28;20047;-77
2021/04/05 04:51:33;;;;;;;3.28;0.63;;;4.80;94.90;;;;;;5077351;28;20068;-77
2021/04/05 04:54:02;;;;;;;2.83;0.35;;;4.70;95.00;;;;;;5069415;28;20463;-77
2021/04/05 04:56:28;;;;;;;1.40;0.40;;;4.60;94.80;;;;;;5074444;28;20120;-77
2021/04/05 04:59:03;;;;;;;3.22;0.50;;;4.50;94.60;;;;;;5071420;28;20041;-77
2021/04/05 05:01:29;;;;;;;;;;;4.40;94.50;;;;;;5077684;28;20048;-77
2021/04/05 05:04:02;;;;;;;5.32;0.90;;;4.40;94.30;;;;;;5074036;28;20011;-77
2021/04/05 05:06:29;;;;;;;2.45;0.60;;;4.30;94.30;;;;;;5069943;28;20040;-77
2021/04/05 05:08:57;;;;;;;4.85;0.88;;;4.30;94.50;;;;;;5070424;28;20048;-77
2021/04/05 05:11:24;;;;;;;2.55;0.38;;;4.30;94.60;;;;;;5086445;28;20473;-77
2021/04/05 05:13:51;;;;;;;6.90;0.82;;;4.20;94.70;;;;;;5070954;28;20051;-77
2021/04/05 05:16:17;;;;;;;3.78;0.65;;;4.20;94.70;;;;;;5064521;28;20144;-77
2021/04/05 05:18:47;;;;;;;2.38;0.55;;;4.20;95.00;;;;;;5072614;28;20047;-77
2021/04/05 05:21:21;;;;;;;3.40;0.60;;;4.10;95.00;;;;;;5078234;28;20044;-77
2021/04/05 05:23:51;;;;;;;8.60;0.98;;;4.20;95.30;;;;;;5080819;28;20517;-77
2021/04/05 05:26:19;;;;;;;3.85;0.77;;;4.10;95.30;;;;;;5071325;28;20147;-77
2021/04/05 05:28:48;;;;;;;4.50;0.80;;;4.10;95.50;;;;;;5080593;28;20150;-77
2021/04/05 05:31:14;;;;;;;6.65;1.25;;;4.10;95.80;;;;;;5071018;28;20494;-77
2021/04/05 05:33:40;;;;;;;5.53;0.70;;;4.10;96.10;;;;;;5066855;28;20039;-77
2021/04/05 05:36:06;;;;;;;4.57;0.65;;;4.10;96.10;;;;;;5073491;28;20041;-77
2021/04/05 05:38:32;;;;;;;3.17;0.50;;;4.00;95.70;;;;;;5069059;28;20060;-78
2021/04/05 05:41:09;;;;;;;3.03;0.40;;;3.90;95.80;;;;;;5075023;28;20491;-78
2021/04/05 05:43:47;;;;;;;2.83;0.70;;;3.80;95.90;;;;;;5069173;28;20056;-78
2021/04/05 05:46:22;;;;;;;5.35;0.93;;;3.70;95.90;;;;;;5074658;28;20082;-78
2021/04/05 05:49:09;;;;;;;2.33;0.47;;;3.60;96.40;;;;;;5076234;28;20081;-78
2021/04/05 05:52:02;;;;;;;3.20;0.50;;;3.50;96.70;;;;;;5076875;28;20066;-78
2021/04/05 05:55:15;;;;;;;1.88;0.20;;;3.40;97.00;;;;;;5049360;28;20464;-77
2021/04/05 05:58:04;;;;;;;5.25;0.52;;;3.40;96.90;;;;;;5072846;28;20037;-78
2021/04/05 06:00:35;;;;;;;4.55;0.85;;;3.40;97.10;;;;;;5087959;28;20185;-79
2021/04/05 06:03:17;;;;;;;3.90;0.60;;;3.30;97.20;;;;;;5081016;28;20059;-79
2021/04/05 06:06:07;;;;;;;2.85;0.57;;;3.30;97.00;;;;;;5080808;28;20033;-79
2021/04/05 06:08:39;;;;;;;5.07;0.55;;;3.30;97.30;;;;;;5077330;28;20164;-80
2021/04/05 06:11:43;;;;;;;6.68;0.63;;;3.30;97.20;;;;;;5080444;28;20033;-80
2021/04/05 06:14:41;;;;;;;5.97;0.60;;;3.30;97.10;;;;;;5084718;28;20476;-80
2021/04/05 06:17:24;;;;;;;6.45;0.68;;;3.30;96.90;;;;;;5064635;28;20433;-80
2021/04/05 06:19:58;;;;;;;3.92;0.60;;;3.30;96.80;;;;;;5082084;28;20044;-79
2021/04/05 06:22:46;;;;;;;3.88;0.70;;;3.30;96.70;;;;;;5081087;28;20051;-79
2021/04/05 06:25:21;;;;;;;2.50;0.50;;;3.40;96.80;;;;;;5074859;28;20032;-80
2021/04/05 06:28:12;;;;;;;11.35;1.45;;;3.30;96.90;;;;;;5078008;28;20078;-80
2021/04/05 06:30:59;;;;;;;9.68;1.67;;;3.40;96.70;;;;;;5079870;28;20032;-79
2021/04/05 06:33:32;;;;;;;7.55;1.05;;;3.40;96.60;;;;;;5080685;28;20041;-79
2021/04/05 06:36:33;;;;;;;11.20;1.30;;;3.40;96.10;;;;;;5076148;28;20032;-79
2021/04/05 06:39:16;;;;;;;11.00;2.03;;;3.40;95.90;;;;;;5075095;28;20041;-79
2021/04/05 06:42:19;;;;;;;8.48;0.98;;;3.40;96.30;;;;;;5082299;28;20071;-79
2021/04/05 06:45:21;;;;;;;13.25;1.70;;;3.40;96.40;;;;;;5075245;28;20040;-79
2021/04/05 06:47:53;;;;;;;10.50;1.38;;;3.50;96.30;;;;;;5066943;28;20098;-79
2021/04/05 06:50:54;;;;;;;11.77;1.63;;;3.50;95.90;;;;;;5069118;28;20060;-79
2021/04/05 06:53:33;;;;;;;9.40;1.58;;;3.60;95.80;;;;;;5075603;28;20086;-79
2021/04/05 06:56:03;;;;;;;13.45;2.03;;;3.60;95.20;;;;;;5074809;28;20059;-79
2021/04/05 06:59:00;;;;;;;11.18;2.03;;;3.60;95.20;;;;;;5074837;28;20048;-79
2021/04/05 07:01:39;;;;;;;20.75;2.47;;;3.70;95.60;;;;;;5078453;28;20055;-79
2021/04/05 07:04:21;;;;;;;15.07;2.38;;;3.70;94.20;;;;;;5079869;28;20032;-79
2021/04/05 07:06:50;;;;;;;11.93;1.90;;;3.80;93.30;;;;;;5073256;28;20067;-79
2021/04/05 07:09:50;;;;;;;9.52;1.25;;;3.80;91.80;;;;;;5077001;28;20044;-79
2021/04/05 07:12:47;;;;;;;16.27;2.17;;;3.80;90.20;;;;;;5069964;28;20053;-79
2021/04/05 07:15:45;;;;;;;9.88;1.95;;;3.90;90.60;;;;;;5079167;28;20082;-79
2021/04/05 07:18:23;;;;;;;6.53;1.15;;;3.90;89.00;;;;;;5078578;28;20070;-79
2021/04/05 07:21:14;;;;;;;11.55;1.55;;;3.90;88.80;;;;;;5075932;28;20737;-79
2021/04/05 07:23:45;;;;;;;9.40;1.67;;;3.90;85.50;;;;;;5078543;28;20113;-78
2021/04/05 07:26:30;;;;;;;10.80;1.98;;;3.90;88.50;;;;;;5071284;28;20040;-78
2021/04/05 07:29:00;;;;;;;7.18;1.45;;;4.00;87.80;;;;;;5075032;28;20036;-77
2021/04/05 07:31:44;;;;;;;7.53;1.30;;;4.00;86.60;;;;;;5070544;28;20070;-79
2021/04/05 07:34:35;;;;;;;7.57;1.63;;;4.00;87.60;;;;;;5081133;28;20040;-79
2021/04/05 07:37:04;;;;;;;8.43;2.08;;;4.00;85.10;;;;;;5070103;28;20032;-79
2021/04/05 07:39:38;;;;;;;2.60;0.52;;;4.00;87.60;;;;;;5088046;28;20032;-78
2021/04/05 07:42:20;;;;;;;2.25;0.30;;;3.80;88.70;;;;;;5067901;28;20032;-77
2021/04/05 07:44:49;;;;;;;1.60;0.40;;;3.00;91.20;;;;;;5075718;28;20696;-77
2021/04/05 07:47:19;;;;;;;4.82;0.98;;;2.40;92.00;;;;;;5070410;28;20068;-77
2021/04/05 07:49:55;;;;;;;4.15;0.55;;;2.20;92.80;;;;;;5073457;28;20048;-77
2021/04/05 07:52:47;;;;;;;3.80;0.57;;;2.20;92.90;;;;;;5068869;28;20048;-77
2021/04/05 07:55:15;;;;;;;6.55;0.93;;;2.30;93.30;;;;;;5071895;28;20040;-78
2021/04/05 07:58:06;;;;;;;5.68;0.90;;;2.50;93.30;;;;;;5068321;28;20040;-78
2021/04/05 08:00:52;;;;;;;2.60;0.98;;;2.60;92.90;;;;;;5076335;28;20178;-78
2021/04/05 08:03:41;;;;;;;5.03;0.60;;;2.80;92.50;;;;;;5068841;28;20047;-78
2021/04/05 08:06:12;;;;;;;7.32;0.60;;;2.80;92.70;;;;;;5069058;28;20593;-77
2021/04/05 08:08:45;;;;;;;2.97;0.60;;;2.80;92.50;;;;;;5069128;28;20052;-77
2021/04/05 08:11:31;;;;;;;2.97;0.32;;;2.70;93.30;;;;;;5078619;28;20404;-76
2021/04/05 08:14:25;;;;;;;6.60;0.85;;;2.40;94.40;;;;;;5070363;28;20076;-78
2021/04/05 08:16:59;;;;;;;4.75;0.50;;;2.30;95.00;;;;;;5090803;28;20056;-77
2021/04/05 08:19:40;;;;;;;8.85;1.30;;;2.00;95.80;;;;;;5071712;28;20126;-79
2021/04/05 08:22:30;;;;;;;7.28;1.20;;;1.60;95.80;;;;;;5071544;28;20441;-79
2021/04/05 08:25:11;;;;;;;4.75;0.80;;;1.50;96.50;;;;;;5069143;28;20488;-78
2021/04/05 08:28:21;;;;;;;6.28;0.60;;;1.50;96.30;;;;;;5072562;28;20028;-79
2021/04/05 08:31:05;;;;;;;8.75;1.35;;;1.60;95.00;;;;;;5038489;28;20539;-79
2021/04/05 08:34:02;;;;;;;14.73;1.92;;;1.70;95.70;;;;;;5072655;28;20075;-79
2021/04/05 08:36:39;;;;;;;9.63;1.20;;;1.80;94.70;;;;;;5072170;28;20032;-79
2021/04/05 08:39:13;;;;;;;6.43;1.27;;;1.70;94.50;;;;;;5074889;28;20098;-79
2021/04/05 08:42:16;;;;;;;13.45;1.83;;;1.60;94.80;;;;;;5073294;28;20056;-79
2021/04/05 08:45:03;;;;;;;7.25;1.90;;;1.60;95.70;;;;;;5070810;28;20032;-81
2021/04/05 08:47:30;;;;;;;9.10;1.10;;;1.60;95.80;;;;;;5072330;28;20037;-81
2021/04/05 08:50:10;;;;;;;7.85;1.73;;;1.70;95.70;;;;;;5072244;28;20109;-81
2021/04/05 08:52:41;;;;;;;7.85;1.15;;;1.80;95.00;;;;;;5082577;28;20066;-80
2021/04/05 08:55:09;;;;;;;12.68;1.75;;;1.90;95.00;;;;;;5072672;28;20024;-76
2021/04/05 08:57:41;;;;;;;9.57;1.48;;;2.00;95.30;;;;;;5089169;28;20080;-77
2021/04/05 09:00:12;;;;;;;7.72;1.45;;;2.30;95.50;;;;;;5069701;28;20040;-76
2021/04/05 09:02:44;;;;;;;10.48;1.83;;;2.60;95.70;;;;;;5070619;28;20444;-75
2021/04/05 09:05:22;;;;;;;10.55;2.33;;;2.90;94.50;;;;;;5066799;28;20084;-76
2021/04/05 09:08:04;;;;;;;13.38;1.77;;;3.00;91.60;;;;;;5072930;28;20131;-77
2021/04/05 09:10:41;;;;;;;9.75;1.80;;;3.20;91.70;;;;;;5065543;28;20037;-76
2021/04/05 09:13:11;;;;;;;9.55;2.13;;;3.30;91.20;;;;;;5078975;28;20037;-76
2021/04/05 09:16:01;;;;;;;13.98;2.10;;;3.20;90.70;;;;;;5069814;28;23529;-77
2021/04/05 09:18:48;;;;;;;10.48;1.92;;;3.10;90.60;;;;;;5076624;28;20044;-78
2021/04/05 09:21:38;;;;;;;6.68;0.90;;;2.90;87.80;;;;;;5069301;28;20090;-77
2021/04/05 09:24:04;;;;;;;8.68;1.30;;;2.70;88.40;;;;;;5075326;28;20044;-78
2021/04/05 09:26:59;;;;;;;8.98;1.73;;;2.60;88.50;;;;;;5073297;28;20028;-78
2021/04/05 09:29:48;;;;;;;7.72;1.63;;;2.60;87.40;;;;;;5075783;28;20083;-78
2021/04/05 09:32:35;;;;;;;8.93;1.77;;;2.70;88.20;;;;;;5080631;28;20048;-78
2021/04/05 09:35:32;;;;;;;16.25;2.05;;;2.80;89.20;;;;;;5073255;28;20054;-78
2021/04/05 09:38:09;;;;;;;9.45;2.05;;;3.00;87.30;;;;;;5057261;28;20432;-77
2021/04/05 09:41:16;;;;;;;8.73;2.13;;;3.10;86.90;;;;;;5076362;28;20052;-79
2021/04/05 09:44:26;;;;;;;9.77;1.55;;;3.30;85.80;;;;;;5078024;28;20066;-75
2021/04/05 09:47:35;;;;;;;9.02;1.60;;;3.20;83.50;;;;;;5076592;28;20052;-77
2021/04/05 09:50:28;;;;;;;6.57;2.00;;;3.00;84.80;;;;;;5075121;28;20036;-77
2021/04/05 09:53:14;;;;;;;13.98;1.98;;;3.10;87.00;;;;;;5074874;28;20076;-77
2021/04/05 09:55:47;;;;;;;9.23;1.73;;;3.30;86.70;;;;;;5075979;28;20121;-79
2021/04/05 09:58:16;;;;;;;5.93;0.90;;;3.40;84.80;;;;;;5073882;28;20036;-78
2021/04/05 10:00:50;;;;;;;10.23;1.48;;;3.60;83.20;;;;;;5077975;28;20082;-82
2021/04/05 10:03:17;;;;;;;8.88;1.63;;;3.70;79.40;;;;;;5075061;28;20055;-83
2021/04/05 10:05:45;;;;;;;6.18;1.10;;;3.80;78.70;;;;;;5088480;28;20028;-81
2021/04/05 10:08:38;;;;;;;9.57;1.67;;;3.90;75.00;;;;;;5076623;28;20052;-81
2021/04/05 10:11:04;;;;;;;7.55;1.90;;;4.00;68.50;;;;;;5079069;28;20479;-79
2021/04/05 10:13:33;;;;;;;6.97;0.82;;;4.10;71.30;;;;;;5073194;28;20040;-80
2021/04/05 10:16:00;;;;;;;7.95;1.15;;;4.20;66.70;;;;;;5084640;28;20056;-78
2021/04/05 10:18:27;;;;;;;10.10;1.90;;;4.50;66.70;;;;;;5072965;28;20068;-79
2021/04/05 10:20:54;;;;;;;8.18;0.95;;;4.70;69.20;;;;;;5075067;28;20510;-76
2021/04/05 10:23:24;;;;;;;9.73;1.20;;;5.10;70.60;;;;;;5069167;28;20047;-78
2021/04/05 10:26:00;;;;;;;8.25;1.02;;;5.10;68.60;;;;;;5075454;28;20046;-77
2021/04/05 10:28:30;;;;;;;8.07;1.23;;;4.90;62.10;;;;;;5073147;28;20035;-77
2021/04/05 10:31:06;;;;;;;2.40;0.63;;;4.70;61.10;;;;;;5071386;28;20045;-77
2021/04/05 10:33:35;;;;;;;11.77;1.38;;;4.70;60.40;;;;;;5077443;28;20092;-77
2021/04/05 10:36:07;;;;;;;4.03;0.70;;;4.80;60.20;;;;;;5080391;28;20113;-77
2021/04/05 10:38:36;;;;;;;6.95;0.88;;;4.80;60.30;;;;;;5073640;28;20059;-77
2021/04/05 10:41:05;;;;;;;1.92;0.73;;;5.00;61.40;;;;;;5072816;28;20472;-77
2021/04/05 10:43:47;;;;;;;6.45;0.90;;;4.90;58.30;;;;;;5070512;28;20043;-77
2021/04/05 10:46:26;;;;;;;4.10;1.20;;;4.90;55.10;;;;;;5078559;28;20412;-77
2021/04/05 10:49:01;;;;;;;2.72;0.40;;;5.10;55.70;;;;;;5073506;28;20040;-77
2021/04/05 10:51:40;;;;;;;3.05;0.50;;;5.20;55.80;;;;;;5077400;28;20180;-77
2021/04/05 10:54:07;;;;;;;3.10;0.70;;;5.10;58.70;;;;;;5068114;28;20040;-77
2021/04/05 10:56:40;;;;;;;5.28;0.40;;;4.90;56.00;;;;;;5075510;28;20507;-76
2021/04/05 10:59:18;;;;;;;3.63;0.50;;;4.80;57.50;;;;;;5077994;28;20037;-76
2021/04/05 11:01:51;;;;;;;5.63;0.55;;;4.80;59.90;;;;;;5077135;28;20052;-76
2021/04/05 11:04:22;;;;;;;2.70;0.40;;;4.90;57.80;;;;;;5076122;28;20032;-77
2021/04/05 11:06:50;;;;;;;4.25;0.50;;;5.00;58.90;;;;;;5073538;28;20036;-77
2021/04/05 11:09:17;;;;;;;4.25;0.85;;;5.30;55.20;;;;;;5076175;28;20138;-77
2021/04/05 11:11:44;;;;;;;5.43;0.90;;;5.30;57.00;;;;;;5073429;28;20098;-78
2021/04/05 11:14:19;;;;;;;4.63;0.80;;;5.10;61.00;;;;;;5079240;28;20052;-80
2021/04/05 11:16:58;;;;;;;7.15;0.90;;;4.70;64.20;;;;;;5073600;28;20070;-79
2021/04/05 11:19:37;;;;;;;4.22;0.80;;;4.50;64.80;;;;;;5076578;28;20036;-78
2021/04/05 11:22:13;;;;;;;3.67;0.32;;;4.60;67.50;;;;;;5082219;28;20384;-78
2021/04/05 11:24:45;;;;;;;3.88;0.60;;;4.60;64.80;;;;;;5072506;28;20040;-76
2021/04/05 11:27:14;;;;;;;3.95;0.75;;;4.60;63.70;;;;;;5067174;28;20139;-78
2021/04/05 11:29:47;;;;;;;4.57;0.50;;;4.70;63.40;;;;;;5076532;28;20044;-77
2021/04/05 11:32:16;;;;;;;1.63;0.30;;;4.90;65.10;;;;;;5077589;28;20131;-77
2021/04/05 11:34:52;;;;;;;1.27;0.50;;;5.10;63.00;;;;;;5072045;28;20587;-77
2021/04/05 11:37:19;;;;;;;2.28;0.40;;;5.20;60.20;;;;;;5068405;28;20046;-76
2021/04/05 11:39:54;;;;;;;3.15;0.30;;;5.20;60.40;;;;;;5077206;28;20036;-78
2021/04/05 11:42:21;;;;;;;1.92;0.20;;;5.10;58.90;;;;;;5072337;28;20056;-78
2021/04/05 11:44:54;;;;;;;8.88;3.67;;;5.20;56.70;;;;;;5075354;28;20048;-78
2021/04/05 11:47:21;;;;;;;1.35;0.40;;;5.20;57.80;;;;;;5076377;28;20048;-79
2021/04/05 11:49:47;;;;;;;6.72;0.85;;;5.20;59.70;;;;;;5071878;28;20028;-78
2021/04/05 11:52:41;;;;;;;4.22;0.52;;;4.90;62.50;;;;;;5070094;28;20422;-77
2021/04/05 11:55:08;;;;;;;5.68;0.57;;;4.50;66.50;;;;;;5068857;28;20048;-78
2021/04/05 11:57:39;;;;;;;2.63;0.55;;;4.10;73.30;;;;;;5078003;28;20036;-78
2021/04/05 12:00:11;;;;;;;4.30;0.77;;;3.90;76.60;;;;;;5075005;28;20040;-77
2021/04/05 12:02:56;;;;;;;5.47;0.60;;;3.80;78.50;;;;;;5068593;28;20120;-80
2021/04/05 12:05:30;;;;;;;6.20;0.87;;;3.70;76.20;;;;;;5076775;28;20055;-78
2021/04/05 12:08:05;;;;;;;4.70;0.88;;;3.90;74.70;;;;;;5074686;28;20052;-78
2021/04/05 12:10:32;;;;;;;4.57;0.90;;;4.10;74.40;;;;;;5082551;28;20048;-79
2021/04/05 12:13:21;;;;;;;10.55;1.35;;;4.40;71.10;;;;;;5073630;28;20476;-79
2021/04/05 12:15:55;;;;;;;8.80;1.00;;;4.50;65.20;;;;;;5071493;28;20047;-78
2021/04/05 12:18:22;;;;;;;7.90;0.90;;;4.50;68.70;;;;;;5068444;28;20044;-77
2021/04/05 12:20:58;;;;;;;13.10;1.17;;;4.50;68.10;;;;;;5082684;28;20051;-77
2021/04/05 12:23:23;;;;;;;4.70;0.80;;;4.50;67.20;;;;;;5071497;28;20044;-76
2021/04/05 12:25:52;;;;;;;8.70;1.45;;;4.60;62.90;;;;;;5075611;28;20052;-77
2021/04/05 12:28:19;;;;;;;7.22;0.95;;;4.70;61.90;;;;;;5067809;28;20158;-77
2021/04/05 12:30:45;;;;;;;7.25;1.02;;;4.60;56.40;;;;;;5079934;28;20060;-77
2021/04/05 12:33:15;;;;;;;8.23;0.93;;;4.70;58.00;;;;;;5073749;28;20127;-78
2021/04/05 12:35:43;;;;;;;3.95;0.93;;;4.80;55.90;;;;;;5076740;28;20048;-78
2021/04/05 12:38:11;;;;;;;6.63;0.77;;;4.90;56.80;;;;;;5065334;28;20436;-78
2021/04/05 12:40:38;;;;;;;6.40;1.50;;;5.30;56.40;;;;;;5084373;28;20036;-78
2021/04/05 12:43:15;;;;;;;8.55;1.13;;;5.50;57.20;;;;;;5070546;28;20057;-78
2021/04/05 12:45:48;;;;;;;5.32;1.10;;;5.30;63.60;;;;;;5072171;28;20377;-76
2021/04/05 12:48:14;;;;;;;7.68;1.02;;;4.80;67.80;;;;;;5071724;28;20039;-77
2021/04/05 12:50:40;;;;;;;2.45;0.35;;;4.30;70.60;;;;;;5066521;28;20840;-77
2021/04/05 12:53:09;;;;;;;5.97;0.60;;;3.90;70.50;;;;;;5070488;28;20036;-77
2021/04/05 12:55:43;;;;;;;5.15;0.38;;;3.70;72.90;;;;;;5073737;28;20046;-78
2021/04/05 12:58:09;;;;;;;7.10;1.00;;;3.40;76.30;;;;;;5084475;28;20078;-76
2021/04/05 13:00:40;;;;;;;4.35;0.70;;;3.10;78.80;;;;;;5071156;28;20048;-76
2021/04/05 13:03:30;;;;;;;3.08;0.80;;;2.90;80.20;;;;;;5080688;28;20044;-76
2021/04/05 13:05:56;;;;;;;2.08;0.43;;;2.60;81.60;;;;;;5075273;28;20044;-76
2021/04/05 13:08:29;;;;;;;5.03;0.73;;;2.60;81.90;;;;;;5079145;28;20102;-76
2021/04/05 13:11:15;;;;;;;2.45;0.50;;;2.70;81.30;;;;;;5074219;28;20046;-76
2021/04/05 13:13:52;;;;;;;2.95;0.50;;;2.70;80.30;;;;;;5081230;28;20043;-76
2021/04/05 13:16:31;;;;;;;3.80;0.50;;;2.90;80.80;;;;;;5075604;28;20466;-76
2021/04/05 13:19:00;;;;;;;3.17;0.47;;;3.10;79.30;;;;;;5080844;28;20162;-76
2021/04/05 13:21:33;;;;;;;4.75;0.43;;;3.40;76.80;;;;;;5069472;28;20214;-76
2021/04/05 13:24:02;;;;;;;2.88;0.40;;;3.50;74.50;;;;;;5075366;28;20168;-75
2021/04/05 13:26:36;;;;;;;5.03;0.70;;;3.70;74.50;;;;;;5074856;28;20043;-75
2021/04/05 13:29:03;;;;;;;3.90;0.50;;;3.90;72.30;;;;;;5072888;28;20031;-75